• Join FlightAware (Why Join?)
  • Login
  • US Flag 
02:36PM EDT


 

Airport Tracker/Info


-or-


 

Live Flight TrackerFlight Track Log ✈ N449ND ✈ 30-May-2014 ✈ KORL - KFPR

Flight Track Log - Related Links

Times and Time Zones

All times are in EDT time to prevent confusion due to time zone crossing. See the N449ND flight status page for this flight to view local times or setup timezone preferences in your user account.

Time Position Orientation Groundspeed Altitude Reporting Facility
EDT Latitude Longitude Course Direction KTS MPH feet Rate Location/Type
07:28PM 28.5667 -81.2333 138° Southeast 87 100 1,700  Level Orlando TRACON
07:29PM 28.5667 -81.2167 90° East 80 92 2,000 120 Climbing Orlando TRACON
07:30PM 28.5500 -81.2000 139° Southeast 86 99 2,000 180 Level Orlando TRACON
07:31PM 28.3648 -81.1656 140° Southeast  Level Estimated
07:31PM 28.5333 -81.1833 139° Southeast 81 93 2,400  Level Orlando TRACON
07:32PM 28.3357 -81.1364 138° Southeast  Level FlightAware Approximate
07:33PM 28.3067 -81.1071 138° Southeast  Level FlightAware Approximate
07:33PM 28.4922 -81.1433 139° Southeast 83 96 3,600  Level Miami Center
07:34PM 28.4742 -81.1286 144° Southeast 81 93 4,000 180 Climbing Miami Center
07:35PM 28.4522 -81.1106 144° Southeast 95 109 4,000  Level Miami Center
07:36PM 28.4311 -81.0939 145° Southeast 93 107 4,000  Level Miami Center
07:37PM 28.4117 -81.0767 142° Southeast 91 105 4,000  Level Miami Center
07:39PM 28.3883 -81.0578 145° Southeast 88 101 4,000  Level Miami Center
07:40PM 28.3678 -81.0442 150° Southeast 88 101 4,000  Level Miami Center
07:41PM 28.3483 -81.0264 141° Southeast 88 101 4,000  Level Miami Center
07:42PM 28.3269 -81.0094 145° Southeast 91 105 4,000  Level Miami Center
07:43PM 28.3058 -80.9936 147° Southeast 91 105 4,000  Level Miami Center
07:44PM 28.2850 -80.9775 146° Southeast 91 105 4,000  Level Miami Center
07:45PM 28.2647 -80.9608 144° Southeast 91 105 4,000  Level Miami Center
07:46PM 28.2442 -80.9447 145° Southeast 91 105 4,000  Level Miami Center
07:47PM 28.2231 -80.9281 145° Southeast 91 105 4,000  Level Miami Center
07:48PM 28.1994 -80.9094 145° Southeast 90 104 4,000  Level Miami Center
07:49PM 28.1789 -80.8928 144° Southeast 90 104 4,000  Level Miami Center
07:50PM 28.1581 -80.8764 145° Southeast 90 104 4,000  Level Miami Center
07:51PM 28.1378 -80.8603 145° Southeast 90 104 4,000  Level Miami Center
07:52PM 28.1169 -80.8433 144° Southeast 90 104 4,000  Level Miami Center
07:53PM 28.0928 -80.8292 153° Southeast 90 104 4,000  Level Miami Center
07:54PM 28.0711 -80.8133 147° Southeast 90 104 4,000  Level Miami Center
07:55PM 28.0542 -80.7919 132° Southeast 89 102 4,000  Level Miami Center
07:56PM 28.0336 -80.7756 145° Southeast 88 101 4,000  Level Miami Center
07:57PM 28.0153 -80.7592 142° Southeast 88 101 4,000  Level Miami Center
07:58PM 27.9950 -80.7419 143° Southeast 88 101 4,000  Level Miami Center
07:59PM 27.9750 -80.7242 142° Southeast 88 101 4,000  Level Miami Center
08:00PM 27.9592 -80.7075 137° Southeast 87 100 4,000  Level Miami Center
08:01PM 27.9367 -80.6939 152° Southeast 86 99 4,000  Level Miami Center
08:02PM 27.9183 -80.6739 136° Southeast 86 99 4,000  Level Miami Center
08:03PM 27.8972 -80.6572 145° Southeast 87 100 4,000  Level Miami Center
08:04PM 27.8789 -80.6408 142° Southeast 87 100 4,000  Level Miami Center
08:05PM 27.8589 -80.6236 143° Southeast 87 100 4,000  Level Miami Center
08:06PM 27.8386 -80.6058 142° Southeast 87 100 4,000  Level Miami Center
08:07PM 27.8194 -80.5917 147° Southeast 87 100 4,000  Level Miami Center
08:08PM 27.7992 -80.5733 141° Southeast 87 100 4,000  Level Miami Center
08:09PM 27.7775 -80.5569 146° Southeast 88 101 4,000  Level Miami Center
08:10PM 27.7578 -80.5422 147° Southeast 88 101 4,000  Level Miami Center
08:11PM 27.7361 -80.5267 148° Southeast 88 101 4,000  Level Miami Center
08:12PM 27.7131 -80.5125 151° Southeast 88 101 4,000  Level Miami Center
08:13PM 27.6931 -80.4981 147° Southeast 88 101 4,000  Level Miami Center
08:14PM 27.6731 -80.4808 143° Southeast 88 101 4,100  Climbing Miami Center
08:15PM 27.6644 -80.4992 242° Southwest 100 115 4,000 -60 Descending Miami Center
08:16PM 27.6744 -80.5319 289° West 103 119 4,000  Level Miami Center
08:17PM 27.6942 -80.5306 North 107 123 4,100  Climbing Miami Center
08:18PM 27.6836 -80.5042 114° Southeast 87 100 4,100  Level Miami Center
08:19PM 27.6692 -80.4861 132° Southeast 89 102 4,100  Level Miami Center
08:20PM 27.6703 -80.5131 273° West 101 116 4,100  Level Miami Center
08:21PM 27.6867 -80.5347 311° West 107 123 4,100  Level Miami Center
08:23PM 27.6847 -80.5078 95° East 91 105 4,100  Level Miami Center
08:24PM 27.6758 -80.4828 112° Southeast 89 102 4,100 -180 Level Miami Center
08:25PM 27.6519 -80.4731 160° South 92 106 3,800 -360 Descending Miami Center
08:26PM 27.6297 -80.4586 150° Southeast 90 104 3,400 -540 Descending Miami Center
08:27PM 27.6075 -80.4439 150° Southeast 90 104 2,800 -600 Descending Miami Center
08:28PM 27.5886 -80.4319 151° Southeast 84 97 2,200 -720 Descending Miami Center
08:29PM 27.5714 -80.4203 149° Southeast 72 83 1,400 -840 Descending Miami Center
08:30PM 27.5503 -80.4078 152° Southeast 79 91 600 -300 Descending Miami Center
08:31PM 27.5328 -80.3958 149° Southeast 79 91 800 -60 Climbing Miami Center
08:32PM 27.5106 -80.3819 151° Southeast 86 99 500 -360 Descending Miami Center
08:33PM 27.4969 -80.3731 150° Southeast 77 89 100 -420 Descending Miami Center